sensor_id;sensor_type;location;lat;lon;timestamp;pressure;altitude;pressure_sealevel;temperature;humidity
21902;BME280;11115;46.038;14.612;2023-04-08T00:00:12;98366.34;;;6.93;100.00
21902;BME280;11115;46.038;14.612;2023-04-08T00:02:43;98359.25;;;6.87;100.00
21902;BME280;11115;46.038;14.612;2023-04-08T00:05:13;98377.78;;;6.72;100.00
21902;BME280;11115;46.038;14.612;2023-04-08T00:07:41;98374.69;;;6.83;100.00
21902;BME280;11115;46.038;14.612;2023-04-08T00:10:13;98380.06;;;6.98;100.00
21902;BME280;11115;46.038;14.612;2023-04-08T00:12:45;98379.44;;;6.73;100.00
21902;BME280;11115;46.038;14.612;2023-04-08T00:15:20;98377.78;;;6.37;100.00
21902;BME280;11115;46.038;14.612;2023-04-08T00:17:49;98365.19;;;6.26;100.00
21902;BME280;11115;46.038;14.612;2023-04-08T00:20:23;98385.88;;;6.08;100.00
21902;BME280;11115;46.038;14.612;2023-04-08T00:23:08;98376.09;;;5.77;100.00
21902;BME280;11115;46.038;14.612;2023-04-08T00:25:40;98379.25;;;5.40;100.00
21902;BME280;11115;46.038;14.612;2023-04-08T00:28:25;98377.56;;;5.54;100.00
21902;BME280;11115;46.038;14.612;2023-04-08T00:30:57;98377.59;;;5.39;100.00
21902;BME280;11115;46.038;14.612;2023-04-08T00:33:33;98363.88;;;5.34;100.00
21902;BME280;11115;46.038;14.612;2023-04-08T00:36:04;98380.47;;;5.78;100.00
21902;BME280;11115;46.038;14.612;2023-04-08T00:38:52;98376.38;;;5.81;100.00
21902;BME280;11115;46.038;14.612;2023-04-08T00:41:26;98349.88;;;5.35;100.00
21902;BME280;11115;46.038;14.612;2023-04-08T00:44:09;98373.72;;;5.55;100.00
21902;BME280;11115;46.038;14.612;2023-04-08T00:46:46;98372.88;;;5.65;100.00
21902;BME280;11115;46.038;14.612;2023-04-08T00:49:25;98366.38;;;6.10;100.00
21902;BME280;11115;46.038;14.612;2023-04-08T00:52:02;98362.63;;;5.91;100.00
21902;BME280;11115;46.038;14.612;2023-04-08T00:54:43;98354.75;;;5.59;100.00
21902;BME280;11115;46.038;14.612;2023-04-08T00:57:19;98334.59;;;5.09;100.00
21902;BME280;11115;46.038;14.612;2023-04-08T00:59:50;98356.00;;;5.02;100.00
21902;BME280;11115;46.038;14.612;2023-04-08T01:02:47;98341.19;;;5.08;100.00
21902;BME280;11115;46.038;14.612;2023-04-08T01:08:20;98349.16;;;5.04;100.00
21902;BME280;11115;46.038;14.612;2023-04-08T01:10:57;98345.56;;;4.43;100.00
21902;BME280;11115;46.038;14.612;2023-04-08T01:13:33;98352.13;;;4.21;100.00
21902;BME280;11115;46.038;14.612;2023-04-08T01:16:11;98348.03;;;4.39;100.00
21902;BME280;11115;46.038;14.612;2023-04-08T01:18:57;98350.53;;;4.51;100.00
21902;BME280;11115;46.038;14.612;2023-04-08T01:21:31;98345.03;;;4.41;100.00
21902;BME280;11115;46.038;14.612;2023-04-08T01:24:35;98350.16;;;4.02;100.00
21902;BME280;11115;46.038;14.612;2023-04-08T01:27:07;98351.31;;;4.41;100.00
21902;BME280;11115;46.038;14.612;2023-04-08T01:29:38;98350.22;;;4.42;100.00
21902;BME280;11115;46.038;14.612;2023-04-08T01:32:36;98343.97;;;4.67;100.00
21902;BME280;11115;46.038;14.612;2023-04-08T01:35:13;98348.34;;;4.63;100.00
21902;BME280;11115;46.038;14.612;2023-04-08T01:37:44;98343.94;;;4.72;100.00
21902;BME280;11115;46.038;14.612;2023-04-08T01:40:16;98344.22;;;4.50;100.00
21902;BME280;11115;46.038;14.612;2023-04-08T01:42:47;98346.97;;;4.76;100.00
21902;BME280;11115;46.038;14.612;2023-04-08T01:45:21;98345.59;;;4.78;100.00
21902;BME280;11115;46.038;14.612;2023-04-08T01:47:57;98348.34;;;4.53;100.00
21902;BME280;11115;46.038;14.612;2023-04-08T01:50:36;98349.38;;;4.21;100.00
21902;BME280;11115;46.038;14.612;2023-04-08T01:53:12;98353.25;;;4.25;100.00
21902;BME280;11115;46.038;14.612;2023-04-08T01:55:57;98347.72;;;4.10;100.00
21902;BME280;11115;46.038;14.612;2023-04-08T01:58:36;98354.78;;;3.91;100.00
21902;BME280;11115;46.038;14.612;2023-04-08T02:01:14;98352.88;;;3.91;100.00
21902;BME280;11115;46.038;14.612;2023-04-08T02:03:50;98349.88;;;3.98;100.00
21902;BME280;11115;46.038;14.612;2023-04-08T02:06:30;98353.75;;;4.22;100.00
21902;BME280;11115;46.038;14.612;2023-04-08T02:09:16;98344.19;;;4.30;100.00
21902;BME280;11115;46.038;14.612;2023-04-08T02:11:50;98352.72;;;4.54;100.00
21902;BME280;11115;46.038;14.612;2023-04-08T02:14:23;98349.44;;;4.47;100.00
21902;BME280;11115;46.038;14.612;2023-04-08T02:17:17;98328.59;;;4.36;100.00
21902;BME280;11115;46.038;14.612;2023-04-08T02:19:59;98350.53;;;4.76;100.00
21902;BME280;11115;46.038;14.612;2023-04-08T02:22:56;98350.78;;;4.95;100.00
21902;BME280;11115;46.038;14.612;2023-04-08T02:25:37;98349.13;;;4.43;100.00
21902;BME280;11115;46.038;14.612;2023-04-08T02:28:09;98350.78;;;4.34;100.00
21902;BME280;11115;46.038;14.612;2023-04-08T02:30:48;98334.91;;;4.72;100.00
21902;BME280;11115;46.038;14.612;2023-04-08T02:33:22;98333.28;;;4.66;100.00
21902;BME280;11115;46.038;14.612;2023-04-08T02:36:06;98348.06;;;4.75;100.00
21902;BME280;11115;46.038;14.612;2023-04-08T02:38:47;98348.59;;;4.56;100.00
21902;BME280;11115;46.038;14.612;2023-04-08T02:41:18;98344.50;;;4.84;100.00
21902;BME280;11115;46.038;14.612;2023-04-08T02:43:49;98354.34;;;4.96;100.00
21902;BME280;11115;46.038;14.612;2023-04-08T02:46:31;98349.13;;;4.99;100.00
21902;BME280;11115;46.038;14.612;2023-04-08T02:49:14;98353.25;;;4.97;100.00
21902;BME280;11115;46.038;14.612;2023-04-08T02:51:44;98355.19;;;4.86;100.00
21902;BME280;11115;46.038;14.612;2023-04-08T02:54:16;98350.50;;;5.07;100.00
21902;BME280;11115;46.038;14.612;2023-04-08T02:56:47;98353.28;;;4.71;100.00
21902;BME280;11115;46.038;14.612;2023-04-08T02:59:18;98351.06;;;4.88;100.00
21902;BME280;11115;46.038;14.612;2023-04-08T03:01:53;98330.22;;;4.93;100.00
21902;BME280;11115;46.038;14.612;2023-04-08T03:04:26;98336.53;;;4.93;100.00
21902;BME280;11115;46.038;14.612;2023-04-08T03:07:00;98342.03;;;4.88;100.00
21902;BME280;11115;46.038;14.612;2023-04-08T03:09:36;98357.09;;;4.96;100.00
21902;BME280;11115;46.038;14.612;2023-04-08T03:12:08;98359.84;;;4.80;100.00
21902;BME280;11115;46.038;14.612;2023-04-08T03:14:42;98359.81;;;5.01;100.00
21902;BME280;11115;46.038;14.612;2023-04-08T03:17:14;98352.72;;;4.79;100.00
21902;BME280;11115;46.038;14.612;2023-04-08T03:19:42;98354.91;;;4.62;100.00
21902;BME280;11115;46.038;14.612;2023-04-08T03:22:13;98359.25;;;4.43;100.00
21902;BME280;11115;46.038;14.612;2023-04-08T03:24:45;98335.19;;;4.45;100.00
21902;BME280;11115;46.038;14.612;2023-04-08T03:27:13;98352.72;;;4.79;100.00
21902;BME280;11115;46.038;14.612;2023-04-08T03:29:43;98351.34;;;4.77;100.00
21902;BME280;11115;46.038;14.612;2023-04-08T03:32:19;98349.97;;;4.69;100.00
21902;BME280;11115;46.038;14.612;2023-04-08T03:34:52;98346.44;;;4.69;100.00
21902;BME280;11115;46.038;14.612;2023-04-08T03:37:23;98351.59;;;5.01;100.00
21902;BME280;11115;46.038;14.612;2023-04-08T03:39:56;98347.75;;;4.97;100.00
21902;BME280;11115;46.038;14.612;2023-04-08T03:42:35;98346.94;;;4.96;100.00
21902;BME280;11115;46.038;14.612;2023-04-08T03:45:14;98336.00;;;4.86;100.00
21902;BME280;11115;46.038;14.612;2023-04-08T03:47:44;98346.13;;;4.91;100.00
21902;BME280;11115;46.038;14.612;2023-04-08T03:50:15;98350.78;;;5.00;100.00
21902;BME280;11115;46.038;14.612;2023-04-08T03:52:59;98325.31;;;4.74;100.00
21902;BME280;11115;46.038;14.612;2023-04-08T03:55:33;98339.28;;;4.78;100.00
21902;BME280;11115;46.038;14.612;2023-04-08T03:58:01;98356.81;;;4.97;100.00
21902;BME280;11115;46.038;14.612;2023-04-08T04:00:38;98356.53;;;4.78;100.00
21902;BME280;11115;46.038;14.612;2023-04-08T04:03:08;98358.19;;;4.74;100.00
21902;BME280;11115;46.038;14.612;2023-04-08T04:05:44;98336.00;;;4.45;100.00
21902;BME280;11115;46.038;14.612;2023-04-08T04:08:19;98359.84;;;4.65;100.00
21902;BME280;11115;46.038;14.612;2023-04-08T04:10:48;98366.41;;;4.95;100.00
21902;BME280;11115;46.038;14.612;2023-04-08T04:13:28;98368.06;;;4.96;100.00
21902;BME280;11115;46.038;14.612;2023-04-08T04:16:03;98368.34;;;4.79;100.00
21902;BME280;11115;46.038;14.612;2023-04-08T04:18:34;98367.50;;;4.58;100.00
21902;BME280;11115;46.038;14.612;2023-04-08T04:21:14;98377.09;;;4.45;100.00
21902;BME280;11115;46.038;14.612;2023-04-08T04:23:56;98366.66;;;4.37;100.00
21902;BME280;11115;46.038;14.612;2023-04-08T04:26:29;98377.84;;;4.20;100.00
21902;BME280;11115;46.038;14.612;2023-04-08T04:29:05;98364.44;;;4.24;100.00
21902;BME280;11115;46.038;14.612;2023-04-08T04:31:41;98377.09;;;4.55;100.00
21902;BME280;11115;46.038;14.612;2023-04-08T04:34:12;98381.19;;;4.58;100.00
21902;BME280;11115;46.038;14.612;2023-04-08T04:36:58;98375.19;;;4.56;100.00
21902;BME280;11115;46.038;14.612;2023-04-08T04:39:31;98380.66;;;4.61;100.00
21902;BME280;11115;46.038;14.612;2023-04-08T04:42:02;98380.09;;;4.54;100.00
21902;BME280;11115;46.038;14.612;2023-04-08T04:44:47;98379.28;;;4.79;100.00
21902;BME280;11115;46.038;14.612;2023-04-08T04:47:23;98377.09;;;4.96;100.00
21902;BME280;11115;46.038;14.612;2023-04-08T04:49:53;98368.28;;;5.19;100.00
21902;BME280;11115;46.038;14.612;2023-04-08T04:52:31;98372.41;;;5.27;100.00
21902;BME280;11115;46.038;14.612;2023-04-08T04:55:01;98377.34;;;5.20;100.00
21902;BME280;11115;46.038;14.612;2023-04-08T04:57:35;98382.31;;;4.67;100.00
21902;BME280;11115;46.038;14.612;2023-04-08T05:00:08;98386.44;;;4.75;100.00
21902;BME280;11115;46.038;14.612;2023-04-08T05:02:39;98384.50;;;4.55;100.00
21902;BME280;11115;46.038;14.612;2023-04-08T05:05:14;98391.63;;;4.46;100.00
21902;BME280;11115;46.038;14.612;2023-04-08T05:07:47;98372.09;;;4.17;100.00
21902;BME280;11115;46.038;14.612;2023-04-08T05:10:23;98395.97;;;4.37;100.00
21902;BME280;11115;46.038;14.612;2023-04-08T05:13:03;98386.66;;;4.33;100.00
21902;BME280;11115;46.038;14.612;2023-04-08T05:15:42;98384.22;;;4.46;100.00
21902;BME280;11115;46.038;14.612;2023-04-08T05:18:17;98387.81;;;4.93;100.00
21902;BME280;11115;46.038;14.612;2023-04-08T05:20:55;98389.44;;;4.88;100.00
21902;BME280;11115;46.038;14.612;2023-04-08T05:23:28;98391.38;;;5.03;100.00
21902;BME280;11115;46.038;14.612;2023-04-08T05:26:06;98395.75;;;5.09;100.00
21902;BME280;11115;46.038;14.612;2023-04-08T05:28:38;98392.16;;;5.19;100.00
21902;BME280;11115;46.038;14.612;2023-04-08T05:31:20;98396.00;;;5.13;100.00
21902;BME280;11115;46.038;14.612;2023-04-08T05:33:52;98398.22;;;5.11;100.00
21902;BME280;11115;46.038;14.612;2023-04-08T05:36:33;98402.31;;;5.29;100.00
21902;BME280;11115;46.038;14.612;2023-04-08T05:39:05;98382.53;;;5.32;100.00
21902;BME280;11115;46.038;14.612;2023-04-08T05:41:36;98403.59;;;5.67;100.00
21902;BME280;11115;46.038;14.612;2023-04-08T05:44:07;98410.78;;;5.37;100.00
21902;BME280;11115;46.038;14.612;2023-04-08T05:46:38;98400.34;;;5.39;100.00
21902;BME280;11115;46.038;14.612;2023-04-08T05:49:14;98414.56;;;5.67;100.00
21902;BME280;11115;46.038;14.612;2023-04-08T05:51:45;98414.59;;;5.62;100.00
21902;BME280;11115;46.038;14.612;2023-04-08T05:54:23;98419.75;;;5.78;100.00
21902;BME280;11115;46.038;14.612;2023-04-08T05:57:05;98427.47;;;5.66;100.00
21902;BME280;11115;46.038;14.612;2023-04-08T05:59:39;98426.66;;;5.66;100.00
21902;BME280;11115;46.038;14.612;2023-04-08T06:02:10;98364.97;;;5.48;100.00
21902;BME280;11115;46.038;14.612;2023-04-08T06:04:42;98424.13;;;5.90;100.00
21902;BME280;11115;46.038;14.612;2023-04-08T06:07:19;98421.09;;;5.86;100.00
21902;BME280;11115;46.038;14.612;2023-04-08T06:09:48;98424.88;;;6.11;100.00
21902;BME280;11115;46.038;14.612;2023-04-08T06:12:21;98420.22;;;6.06;100.00
21902;BME280;11115;46.038;14.612;2023-04-08T06:14:59;98427.59;;;6.21;100.00
21902;BME280;11115;46.038;14.612;2023-04-08T06:17:28;98430.63;;;6.19;100.00
21902;BME280;11115;46.038;14.612;2023-04-08T06:20:06;98421.88;;;6.07;100.00
21902;BME280;11115;46.038;14.612;2023-04-08T06:22:36;98408.47;;;5.90;100.00
21902;BME280;11115;46.038;14.612;2023-04-08T06:25:10;98423.22;;;6.09;100.00
21902;BME280;11115;46.038;14.612;2023-04-08T06:27:53;98407.88;;;6.03;100.00
21902;BME280;11115;46.038;14.612;2023-04-08T06:30:22;98428.09;;;6.28;100.00
21902;BME280;11115;46.038;14.612;2023-04-08T06:32:55;98408.38;;;6.21;100.00
21902;BME280;11115;46.038;14.612;2023-04-08T06:35:30;98434.69;;;6.27;100.00
21902;BME280;11115;46.038;14.612;2023-04-08T06:38:03;98428.34;;;6.31;100.00
21902;BME280;11115;46.038;14.612;2023-04-08T06:40:32;98423.22;;;6.09;100.00
21902;BME280;11115;46.038;14.612;2023-04-08T06:43:04;98441.84;;;6.28;100.00
21902;BME280;11115;46.038;14.612;2023-04-08T06:45:40;98398.22;;;6.11;100.00
21902;BME280;11115;46.038;14.612;2023-04-08T06:48:16;98437.34;;;6.47;100.00
21902;BME280;11115;46.038;14.612;2023-04-08T06:50:51;98439.75;;;6.59;100.00
21902;BME280;11115;46.038;14.612;2023-04-08T06:53:22;98434.47;;;6.67;100.00
21902;BME280;11115;46.038;14.612;2023-04-08T06:55:55;98439.47;;;6.55;100.00
21902;BME280;11115;46.038;14.612;2023-04-08T06:58:23;98431.22;;;6.60;100.00
21902;BME280;11115;46.038;14.612;2023-04-08T07:01:02;98445.38;;;6.83;100.00
21902;BME280;11115;46.038;14.612;2023-04-08T07:03:35;98447.00;;;6.84;100.00
21902;BME280;11115;46.038;14.612;2023-04-08T07:06:19;98445.94;;;6.75;100.00
21902;BME280;11115;46.038;14.612;2023-04-08T07:08:54;98427.66;;;6.60;100.00
21902;BME280;11115;46.038;14.612;2023-04-08T07:11:28;98445.41;;;6.73;100.00
21902;BME280;11115;46.038;14.612;2023-04-08T07:14:05;98454.63;;;6.92;100.00
21902;BME280;11115;46.038;14.612;2023-04-08T07:16:36;98461.81;;;6.88;100.00
21902;BME280;11115;46.038;14.612;2023-04-08T07:19:09;98459.84;;;6.93;100.00
21902;BME280;11115;46.038;14.612;2023-04-08T07:21:41;98459.59;;;6.95;100.00
21902;BME280;11115;46.038;14.612;2023-04-08T07:24:09;98461.75;;;6.98;100.00
21902;BME280;11115;46.038;14.612;2023-04-08T07:27:01;98445.22;;;7.03;100.00
21902;BME280;11115;46.038;14.612;2023-04-08T07:29:33;98464.47;;;7.03;100.00
21902;BME280;11115;46.038;14.612;2023-04-08T07:32:02;98446.31;;;7.02;100.00
21902;BME280;11115;46.038;14.612;2023-04-08T07:34:39;98464.75;;;7.02;100.00
21902;BME280;11115;46.038;14.612;2023-04-08T07:37:07;98463.69;;;6.97;100.00
21902;BME280;11115;46.038;14.612;2023-04-08T07:39:38;98469.88;;;7.13;100.00
21902;BME280;11115;46.038;14.612;2023-04-08T07:42:08;98475.66;;;7.17;100.00
21902;BME280;11115;46.038;14.612;2023-04-08T07:44:41;98477.06;;;7.14;100.00
21902;BME280;11115;46.038;14.612;2023-04-08T07:47:20;98477.16;;;6.94;100.00
21902;BME280;11115;46.038;14.612;2023-04-08T07:49:48;98478.13;;;7.13;100.00
21902;BME280;11115;46.038;14.612;2023-04-08T07:52:31;98475.78;;;7.36;100.00
21902;BME280;11115;46.038;14.612;2023-04-08T07:55:00;98490.06;;;7.38;100.00
21902;BME280;11115;46.038;14.612;2023-04-08T07:57:33;98493.94;;;7.37;100.00
21902;BME280;11115;46.038;14.612;2023-04-08T08:00:09;98486.94;;;7.49;100.00
21902;BME280;11115;46.038;14.612;2023-04-08T08:02:49;98496.16;;;7.35;100.00
21902;BME280;11115;46.038;14.612;2023-04-08T08:05:21;98490.13;;;7.27;100.00
21902;BME280;11115;46.038;14.612;2023-04-08T08:07:59;98501.31;;;7.41;100.00
21902;BME280;11115;46.038;14.612;2023-04-08T08:10:32;98496.41;;;7.38;100.00
21902;BME280;11115;46.038;14.612;2023-04-08T08:13:08;98475.78;;;7.36;100.00
21902;BME280;11115;46.038;14.612;2023-04-08T08:15:38;98499.34;;;7.47;100.00
21902;BME280;11115;46.038;14.612;2023-04-08T08:18:10;98498.75;;;7.50;100.00
21902;BME280;11115;46.038;14.612;2023-04-08T08:20:45;98502.88;;;7.52;100.00
21902;BME280;11115;46.038;14.612;2023-04-08T08:23:18;98509.13;;;7.63;100.00
21902;BME280;11115;46.038;14.612;2023-04-08T08:26:03;98508.75;;;7.70;100.00
21902;BME280;11115;46.038;14.612;2023-04-08T08:28:39;98517.38;;;7.92;100.00
21902;BME280;11115;46.038;14.612;2023-04-08T08:31:10;98508.56;;;7.90;100.00
21902;BME280;11115;46.038;14.612;2023-04-08T08:33:43;98512.69;;;7.93;100.00
21902;BME280;11115;46.038;14.612;2023-04-08T08:36:18;98512.72;;;8.16;100.00
21902;BME280;11115;46.038;14.612;2023-04-08T08:38:55;98521.00;;;8.40;100.00
21902;BME280;11115;46.038;14.612;2023-04-08T08:41:33;98514.00;;;8.48;100.00
21902;BME280;11115;46.038;14.612;2023-04-08T08:44:31;98518.78;;;8.42;100.00
21902;BME280;11115;46.038;14.612;2023-04-08T08:47:06;98512.56;;;8.56;100.00
21902;BME280;11115;46.038;14.612;2023-04-08T08:49:38;98505.72;;;8.72;100.00
21902;BME280;11115;46.038;14.612;2023-04-08T08:52:18;98515.69;;;9.10;100.00
21902;BME280;11115;46.038;14.612;2023-04-08T08:54:47;98507.75;;;9.23;100.00
21902;BME280;11115;46.038;14.612;2023-04-08T08:57:19;98503.19;;;9.32;100.00
21902;BME280;11115;46.038;14.612;2023-04-08T08:59:51;98511.56;;;9.59;100.00
21902;BME280;11115;46.038;14.612;2023-04-08T09:02:30;98513.97;;;9.66;100.00
21902;BME280;11115;46.038;14.612;2023-04-08T09:05:02;98519.00;;;9.78;100.00
21902;BME280;11115;46.038;14.612;2023-04-08T09:07:36;98498.22;;;9.66;100.00
21902;BME280;11115;46.038;14.612;2023-04-08T09:10:11;98520.28;;;9.99;100.00
21902;BME280;11115;46.038;14.612;2023-04-08T09:12:55;98515.31;;;9.68;100.00
21902;BME280;11115;46.038;14.612;2023-04-08T09:15:32;98514.69;;;9.71;100.00
21902;BME280;11115;46.038;14.612;2023-04-08T09:18:01;98517.94;;;10.20;100.00
21902;BME280;11115;46.038;14.612;2023-04-08T09:20:53;98505.59;;;10.31;100.00
21902;BME280;11115;46.038;14.612;2023-04-08T09:23:44;98517.81;;;10.44;100.00
21902;BME280;11115;46.038;14.612;2023-04-08T09:26:21;98524.00;;;10.08;100.00
21902;BME280;11115;46.038;14.612;2023-04-08T09:29:08;98524.03;;;10.36;100.00
21902;BME280;11115;46.038;14.612;2023-04-08T09:31:59;98519.34;;;10.22;100.00
21902;BME280;11115;46.038;14.612;2023-04-08T09:34:29;98519.53;;;10.53;100.00
21902;BME280;11115;46.038;14.612;2023-04-08T09:37:04;98518.41;;;10.54;100.00
21902;BME280;11115;46.038;14.612;2023-04-08T09:39:33;98513.47;;;10.79;100.00
21902;BME280;11115;46.038;14.612;2023-04-08T09:42:07;98521.63;;;10.98;100.00
21902;BME280;11115;46.038;14.612;2023-04-08T09:44:41;98523.91;;;10.95;100.00
21902;BME280;11115;46.038;14.612;2023-04-08T09:47:23;98517.97;;;10.88;100.00
21902;BME280;11115;46.038;14.612;2023-04-08T09:50:00;98525.44;;;11.02;100.00
21902;BME280;11115;46.038;14.612;2023-04-08T09:52:41;98510.78;;;11.01;100.00
21902;BME280;11115;46.038;14.612;2023-04-08T09:55:15;98512.00;;;10.95;100.00
21902;BME280;11115;46.038;14.612;2023-04-08T09:58:10;98517.84;;;11.07;100.00
21902;BME280;11115;46.038;14.612;2023-04-08T10:00:49;98516.34;;;10.87;100.00
21902;BME280;11115;46.038;14.612;2023-04-08T10:03:36;98515.19;;;11.38;100.00
21902;BME280;11115;46.038;14.612;2023-04-08T10:06:08;98500.38;;;11.20;100.00
21902;BME280;11115;46.038;14.612;2023-04-08T10:08:43;98514.47;;;11.33;100.00
21902;BME280;11115;46.038;14.612;2023-04-08T10:11:27;98500.38;;;11.20;100.00
21902;BME280;11115;46.038;14.612;2023-04-08T10:13:56;98511.91;;;11.59;100.00
21902;BME280;11115;46.038;14.612;2023-04-08T10:16:25;98516.19;;;11.42;100.00
21902;BME280;11115;46.038;14.612;2023-04-08T10:18:58;98516.38;;;11.46;100.00
21902;BME280;11115;46.038;14.612;2023-04-08T10:21:40;98519.84;;;11.51;100.00
21902;BME280;11115;46.038;14.612;2023-04-08T10:24:18;98506.69;;;11.57;100.00
21902;BME280;11115;46.038;14.612;2023-04-08T10:26:51;98498.00;;;11.50;100.00
21902;BME280;11115;46.038;14.612;2023-04-08T10:29:30;98517.53;;;11.90;100.00
21902;BME280;11115;46.038;14.612;2023-04-08T10:32:26;98513.31;;;12.23;100.00
21902;BME280;11115;46.038;14.612;2023-04-08T10:35:00;98518.38;;;12.21;100.00
21902;BME280;11115;46.038;14.612;2023-04-08T10:37:33;98511.69;;;12.31;100.00
21902;BME280;11115;46.038;14.612;2023-04-08T10:40:04;98502.81;;;12.11;100.00
21902;BME280;11115;46.038;14.612;2023-04-08T10:42:43;98510.19;;;12.16;100.00
21902;BME280;11115;46.038;14.612;2023-04-08T10:45:15;98504.75;;;12.51;100.00
21902;BME280;11115;46.038;14.612;2023-04-08T10:47:46;98511.00;;;12.17;100.00
21902;BME280;11115;46.038;14.612;2023-04-08T10:50:30;98500.06;;;12.60;100.00
21902;BME280;11115;46.038;14.612;2023-04-08T10:53:09;98502.75;;;12.73;100.00
21902;BME280;11115;46.038;14.612;2023-04-08T10:55:41;98503.44;;;13.05;100.00
21902;BME280;11115;46.038;14.612;2023-04-08T10:58:12;98501.59;;;12.92;100.00
21902;BME280;11115;46.038;14.612;2023-04-08T11:00:44;98501.50;;;13.14;100.00
21902;BME280;11115;46.038;14.612;2023-04-08T11:03:19;98443.31;;;13.00;100.00
21902;BME280;11115;46.038;14.612;2023-04-08T11:06:02;98497.44;;;13.55;100.00
21902;BME280;11115;46.038;14.612;2023-04-08T11:08:36;98495.47;;;13.55;96.31
21902;BME280;11115;46.038;14.612;2023-04-08T11:11:08;98494.78;;;13.84;95.51
21902;BME280;11115;46.038;14.612;2023-04-08T11:13:49;98489.94;;;13.55;92.28
21902;BME280;11115;46.038;14.612;2023-04-08T11:16:23;98490.88;;;13.77;93.12
21902;BME280;11115;46.038;14.612;2023-04-08T11:19:04;98492.53;;;13.43;91.27
21902;BME280;11115;46.038;14.612;2023-04-08T11:21:37;98487.44;;;14.26;98.43
21902;BME280;11115;46.038;14.612;2023-04-08T11:24:11;98483.03;;;14.25;100.00
21902;BME280;11115;46.038;14.612;2023-04-08T11:26:46;98478.53;;;14.04;100.00
21902;BME280;11115;46.038;14.612;2023-04-08T11:29:33;98475.59;;;14.09;99.15
21902;BME280;11115;46.038;14.612;2023-04-08T11:32:03;98482.09;;;14.21;99.19
21902;BME280;11115;46.038;14.612;2023-04-08T11:34:41;98479.69;;;14.03;93.98
21902;BME280;11115;46.038;14.612;2023-04-08T11:37:09;98473.13;;;14.54;92.87
21902;BME280;11115;46.038;14.612;2023-04-08T11:39:45;98467.91;;;14.52;100.00
21902;BME280;11115;46.038;14.612;2023-04-08T11:42:27;98479.34;;;14.13;100.00
21902;BME280;11115;46.038;14.612;2023-04-08T11:44:57;98473.34;;;13.85;99.70
21902;BME280;11115;46.038;14.612;2023-04-08T11:47:31;98443.66;;;13.59;91.26
21902;BME280;11115;46.038;14.612;2023-04-08T11:50:05;98466.66;;;13.77;88.98
21902;BME280;11115;46.038;14.612;2023-04-08T11:52:46;98456.38;;;14.63;89.35
21902;BME280;11115;46.038;14.612;2023-04-08T11:55:33;98465.47;;;14.42;96.51
21902;BME280;11115;46.038;14.612;2023-04-08T11:58:04;98462.88;;;14.37;99.76
21902;BME280;11115;46.038;14.612;2023-04-08T12:00:40;98459.34;;;14.57;100.00
21902;BME280;11115;46.038;14.612;2023-04-08T12:03:12;98438.72;;;14.58;100.00
21902;BME280;11115;46.038;14.612;2023-04-08T12:05:42;98461.19;;;15.66;93.25
21902;BME280;11115;46.038;14.612;2023-04-08T12:08:12;98461.63;;;15.89;99.66
21902;BME280;11115;46.038;14.612;2023-04-08T12:10:49;98453.09;;;15.53;100.00
21902;BME280;11115;46.038;14.612;2023-04-08T12:13:18;98451.09;;;16.19;90.93
21902;BME280;11115;46.038;14.612;2023-04-08T12:15:49;98452.63;;;15.71;83.37
21902;BME280;11115;46.038;14.612;2023-04-08T12:18:21;98448.91;;;15.79;94.78
21902;BME280;11115;46.038;14.612;2023-04-08T12:20:59;98451.47;;;15.31;98.00
21902;BME280;11115;46.038;14.612;2023-04-08T12:23:28;98437.25;;;15.65;100.00
21902;BME280;11115;46.038;14.612;2023-04-08T12:26:01;98434.00;;;15.01;98.24
21902;BME280;11115;46.038;14.612;2023-04-08T12:28:35;98448.84;;;15.13;100.00
21902;BME280;11115;46.038;14.612;2023-04-08T12:31:11;98436.31;;;15.40;97.06
21902;BME280;11115;46.038;14.612;2023-04-08T12:33:43;98439.41;;;15.93;100.00
21902;BME280;11115;46.038;14.612;2023-04-08T12:36:11;98422.97;;;16.61;93.50
21902;BME280;11115;46.038;14.612;2023-04-08T12:38:56;98432.13;;;16.13;100.00
21902;BME280;11115;46.038;14.612;2023-04-08T12:41:28;98437.88;;;16.41;94.21
21902;BME280;11115;46.038;14.612;2023-04-08T12:43:59;98432.34;;;17.73;73.11
21902;BME280;11115;46.038;14.612;2023-04-08T12:46:36;98432.75;;;17.32;93.74
21902;BME280;11115;46.038;14.612;2023-04-08T12:49:11;98433.78;;;16.99;88.13
21902;BME280;11115;46.038;14.612;2023-04-08T12:51:41;98432.38;;;16.93;100.00
21902;BME280;11115;46.038;14.612;2023-04-08T12:54:12;98420.50;;;16.11;80.79
21902;BME280;11115;46.038;14.612;2023-04-08T12:56:39;98420.94;;;15.34;86.32
21902;BME280;11115;46.038;14.612;2023-04-08T12:59:18;98436.97;;;15.04;89.17
21902;BME280;11115;46.038;14.612;2023-04-08T13:01:49;98437.13;;;15.20;100.00
21902;BME280;11115;46.038;14.612;2023-04-08T13:04:21;98434.94;;;14.84;100.00
21902;BME280;11115;46.038;14.612;2023-04-08T13:06:52;98442.38;;;14.50;100.00
21902;BME280;11115;46.038;14.612;2023-04-08T13:09:31;98438.53;;;14.25;100.00
21902;BME280;11115;46.038;14.612;2023-04-08T13:12:02;98430.75;;;14.10;100.00
21902;BME280;11115;46.038;14.612;2023-04-08T13:14:31;98431.91;;;14.01;100.00
21902;BME280;11115;46.038;14.612;2023-04-08T13:17:03;98431.84;;;14.18;100.00
21902;BME280;11115;46.038;14.612;2023-04-08T13:19:34;98430.16;;;14.64;100.00
21902;BME280;11115;46.038;14.612;2023-04-08T13:22:07;98417.28;;;14.21;100.00
21902;BME280;11115;46.038;14.612;2023-04-08T13:24:39;98427.97;;;14.40;100.00
21902;BME280;11115;46.038;14.612;2023-04-08T13:27:13;98411.50;;;13.96;100.00
21902;BME280;11115;46.038;14.612;2023-04-08T13:29:49;98425.06;;;14.36;100.00
21902;BME280;11115;46.038;14.612;2023-04-08T13:32:22;98422.06;;;14.12;100.00